Time;durP1;ratioP1;P1;durP2;ratioP2;P2;SDS_P1;SDS_P2;PMS_P1;PMS_P2;Temp;Humidity;BMP_temperature;BMP_pressure;BME280_temperature;BME280_humidity;BME280_pressure;Samples;Min_cycle;Max_cycle;Signal;HPM_P1;HPM_P2
2023/06/30 00:00:15;;;;;;;;;;;;;;;15.73;100.00;101421.69;5094221;27;19923;-71
2023/06/30 00:02:46;;;;;;;;;;;;;;;15.71;100.00;101413.69;5103729;27;20048;-71
2023/06/30 00:05:11;;;;;;;;;;;;;;;15.73;100.00;101406.28;5098450;27;20039;-71
2023/06/30 00:07:37;;;;;;;;;;;;;;;15.73;100.00;101400.88;5095836;28;19923;-71
2023/06/30 00:10:03;;;;;;;;;;;;;;;15.70;100.00;101411.97;5114015;27;20377;-71
2023/06/30 00:12:28;;;;;;;;;;;;;;;15.64;100.00;101415.22;5090120;28;20365;-71
2023/06/30 00:14:53;;;;;;;;;;;;;;;15.58;100.00;101410.38;5092972;27;19925;-71
2023/06/30 00:17:18;;;;;;;;;;;;;;;15.55;100.00;101416.06;5094466;28;19928;-71
2023/06/30 00:19:44;;;;;;;;;;;;;;;15.49;100.00;101413.91;5073220;27;20041;-70
2023/06/30 00:22:09;;;;;;;;;;;;;;;15.44;100.00;101420.59;5093494;28;19956;-71
2023/06/30 00:24:34;;;;;;;;;;;;;;;15.41;100.00;101420.03;5093904;27;20173;-71
2023/06/30 00:27:00;;;;;;;;;;;;;;;15.29;100.00;101416.56;5112850;27;19923;-71
2023/06/30 00:29:25;;;;;;;;;;;;;;;15.22;100.00;101418.09;5085859;27;20029;-71
2023/06/30 00:31:50;;;;;;;;;;;;;;;15.14;100.00;101411.50;5094608;28;19923;-71
2023/06/30 00:34:15;;;;;;;;;;;;;;;15.11;100.00;101410.94;5111879;27;21476;-70
2023/06/30 00:36:40;;;;;;;;;;;;;;;15.07;100.00;101407.66;5092894;28;20035;-70
2023/06/30 00:39:06;;;;;;;;;;;;;;;15.07;100.00;101415.75;5094204;27;19934;-71
2023/06/30 00:41:31;;;;;;;;;;;;;;;14.94;100.00;101413.28;5099575;27;19927;-70
2023/06/30 00:43:56;;;;;;;;;;;;;;;14.92;100.00;101422.50;5081730;27;19927;-70
2023/06/30 00:46:21;;;;;;;;;;;;;;;14.94;100.00;101418.69;5098970;27;20266;-71
2023/06/30 00:48:46;;;;;;;;;;;;;;;14.90;100.00;101427.19;5095643;27;19919;-71
2023/06/30 00:51:12;;;;;;;;;;;;;;;14.83;100.00;101429.56;5095914;27;19930;-70
2023/06/30 00:53:37;;;;;;;;;;;;;;;14.80;100.00;101422.59;5096419;27;19919;-71
2023/06/30 00:56:03;;;;;;;;;;;;;;;14.82;100.00;101422.44;5102436;28;19934;-70
2023/06/30 00:58:28;;;;;;;;;;;;;;;14.72;100.00;101418.81;5101151;27;19930;-70
2023/06/30 01:00:59;;;;;;;;;;;;;;;14.64;100.00;101416.75;5096358;27;19928;-71
2023/06/30 01:03:33;;;;;;;;;;;;;;;14.57;100.00;101416.44;5095745;27;19923;-71
2023/06/30 01:06:01;;;;;;;;;;;;;;;14.53;100.00;101415.84;5095610;27;19930;-71
2023/06/30 01:08:32;;;;;;;;;;;;;;;14.44;100.00;101422.03;5111898;27;20447;-71
2023/06/30 01:10:57;;;;;;;;;;;;;;;14.40;100.00;101417.84;5098640;27;20467;-70
2023/06/30 01:13:22;;;;;;;;;;;;;;;14.39;100.00;101416.16;5097581;27;19923;-71
2023/06/30 01:15:47;;;;;;;;;;;;;;;14.38;100.00;101417.13;5100296;28;19924;-70
2023/06/30 01:18:12;;;;;;;;;;;;;;;14.32;100.00;101421.22;5095623;27;19959;-71
2023/06/30 01:20:40;;;;;;;;;;;;;;;14.18;100.00;101406.19;5120240;27;20053;-70
2023/06/30 01:23:11;;;;;;;;;;;;;;;14.27;100.00;101426.16;5098552;28;20386;-70
2023/06/30 01:25:36;;;;;;;;;;;;;;;14.19;100.00;101432.19;5116199;27;19930;-70
2023/06/30 01:28:01;;;;;;;;;;;;;;;14.17;100.00;101431.47;5094859;27;19927;-70
2023/06/30 01:30:30;;;;;;;;;;;;;;;14.13;100.00;101434.56;5091749;28;19927;-70
2023/06/30 01:32:55;;;;;;;;;;;;;;;14.07;100.00;101442.19;5114951;27;19978;-70
2023/06/30 01:35:21;;;;;;;;;;;;;;;13.95;100.00;101437.78;5090989;28;20345;-70
2023/06/30 01:37:46;;;;;;;;;;;;;;;13.93;100.00;101435.22;5113423;27;19923;-70
2023/06/30 01:40:11;;;;;;;;;;;;;;;13.88;100.00;101429.34;5102992;27;20432;-70
2023/06/30 01:42:37;;;;;;;;;;;;;;;13.90;100.00;101437.34;5108903;27;19959;-70
2023/06/30 01:45:02;;;;;;;;;;;;;;;13.90;100.00;101430.09;5089785;28;20415;-70
2023/06/30 01:47:27;;;;;;;;;;;;;;;13.86;100.00;101431.31;5088572;27;20536;-70
2023/06/30 01:49:52;;;;;;;;;;;;;;;13.82;100.00;101431.72;5074275;27;19976;-70
2023/06/30 01:52:18;;;;;;;;;;;;;;;13.77;100.00;101429.41;5095600;27;20041;-70
2023/06/30 01:54:43;;;;;;;;;;;;;;;13.73;100.00;101433.31;5113175;27;19924;-70
2023/06/30 01:57:08;;;;;;;;;;;;;;;13.71;100.00;101427.19;5091612;27;20654;-70
2023/06/30 01:59:33;;;;;;;;;;;;;;;13.70;100.00;101425.47;5110861;27;19926;-70
2023/06/30 02:01:58;;;;;;;;;;;;;;;13.66;100.00;101424.84;5111000;27;19976;-70
2023/06/30 02:04:24;;;;;;;;;;;;;;;13.66;100.00;101427.56;5110985;27;21304;-70
2023/06/30 02:06:49;;;;;;;;;;;;;;;13.61;100.00;101421.69;5111461;27;19931;-70
2023/06/30 02:09:14;;;;;;;;;;;;;;;13.61;100.00;101419.00;5096321;27;19923;-70
2023/06/30 02:11:39;;;;;;;;;;;;;;;13.60;100.00;101423.53;5093265;27;19966;-70
2023/06/30 02:14:05;;;;;;;;;;;;;;;13.55;100.00;101417.63;5093582;27;20006;-70
2023/06/30 02:16:30;;;;;;;;;;;;;;;13.56;100.00;101415.81;5093413;28;20344;-70
2023/06/30 02:18:55;;;;;;;;;;;;;;;13.50;100.00;101419.88;5090212;27;20615;-70
2023/06/30 02:21:21;;;;;;;;;;;;;;;13.45;100.00;101424.78;5091418;28;19920;-70
2023/06/30 02:23:47;;;;;;;;;;;;;;;13.37;100.00;101425.38;5115280;27;20357;-70
2023/06/30 02:26:12;;;;;;;;;;;;;;;13.31;100.00;101424.00;5110448;27;20145;-70
2023/06/30 02:28:37;;;;;;;;;;;;;;;13.27;100.00;101421.69;5110813;27;19924;-70
2023/06/30 02:31:02;;;;;;;;;;;;;;;13.19;100.00;101420.44;5090999;27;19927;-70
2023/06/30 02:33:28;;;;;;;;;;;;;;;13.10;100.00;101413.13;5107651;27;19928;-70
2023/06/30 02:35:53;;;;;;;;;;;;;;;12.93;100.00;101422.53;5107943;27;19963;-70
2023/06/30 02:38:18;;;;;;;;;;;;;;;12.75;100.00;101422.13;5090403;28;19923;-70
2023/06/30 02:40:44;;;;;;;;;;;;;;;12.61;100.00;101420.50;5090095;27;19923;-70
2023/06/30 02:43:10;;;;;;;;;;;;;;;12.47;100.00;101424.28;5089941;27;19931;-70
2023/06/30 02:45:35;;;;;;;;;;;;;;;12.38;100.00;101431.22;5105995;27;20674;-70
2023/06/30 02:48:00;;;;;;;;;;;;;;;12.31;100.00;101438.03;5098005;27;19923;-70
2023/06/30 02:50:29;;;;;;;;;;;;;;;12.30;100.00;101437.19;5088074;27;19969;-70
2023/06/30 02:52:54;;;;;;;;;;;;;;;12.30;100.00;101437.19;5090769;27;20021;-70
2023/06/30 02:55:19;;;;;;;;;;;;;;;12.29;100.00;101440.88;5107426;27;20011;-70
2023/06/30 02:57:45;;;;;;;;;;;;;;;12.26;100.00;101443.78;5117630;27;19923;-70
2023/06/30 03:00:10;;;;;;;;;;;;;;;12.24;100.00;101440.34;5104613;28;19923;-70
2023/06/30 03:02:35;;;;;;;;;;;;;;;12.21;100.00;101453.16;5096780;27;20286;-70
2023/06/30 03:05:01;;;;;;;;;;;;;;;12.21;100.00;101445.97;5092088;28;20272;-69
2023/06/30 03:07:26;;;;;;;;;;;;;;;12.18;100.00;101445.34;5109618;27;21365;-69
2023/06/30 03:09:51;;;;;;;;;;;;;;;12.11;100.00;101448.47;5114049;27;19923;-70
2023/06/30 03:12:16;;;;;;;;;;;;;;;11.97;100.00;101437.84;5111685;27;19967;-70
2023/06/30 03:14:41;;;;;;;;;;;;;;;11.83;100.00;101444.25;5109469;27;19986;-70
2023/06/30 03:17:07;;;;;;;;;;;;;;;11.75;100.00;101443.97;5116716;27;20346;-69
2023/06/30 03:19:32;;;;;;;;;;;;;;;11.65;100.00;101439.25;5096420;28;20030;-70
2023/06/30 03:21:57;;;;;;;;;;;;;;;11.65;100.00;101446.47;5094340;27;19924;-70
2023/06/30 03:24:22;;;;;;;;;;;;;;;11.64;100.00;101447.44;5108626;27;19924;-70
2023/06/30 03:26:48;;;;;;;;;;;;;;;11.63;100.00;101446.56;5110578;27;19923;-69
2023/06/30 03:29:13;;;;;;;;;;;;;;;11.59;100.00;101445.06;5112662;27;19959;-70
2023/06/30 03:31:38;;;;;;;;;;;;;;;11.65;100.00;101446.47;5112691;27;20261;-70
2023/06/30 03:34:03;;;;;;;;;;;;;;;11.66;100.00;101446.34;5108136;27;19919;-69
2023/06/30 03:36:29;;;;;;;;;;;;;;;11.66;100.00;101438.28;5090207;27;19975;-69
2023/06/30 03:38:54;;;;;;;;;;;;;;;11.65;100.00;101435.72;5106179;27;20006;-70
2023/06/30 03:41:19;;;;;;;;;;;;;;;11.59;100.00;101433.47;5077543;27;19959;-70
2023/06/30 03:43:44;;;;;;;;;;;;;;;11.52;100.00;101430.38;5109312;27;20393;-70
2023/06/30 03:46:11;;;;;;;;;;;;;;;11.43;100.00;101426.50;5090252;27;20411;-70
2023/06/30 03:48:36;;;;;;;;;;;;;;;11.38;100.00;101428.69;5113047;27;19962;-69
2023/06/30 03:51:02;;;;;;;;;;;;;;;11.31;100.00;101428.22;5089965;27;20525;-69
2023/06/30 03:53:27;;;;;;;;;;;;;;;11.29;100.00;101430.16;5104582;27;20425;-69
2023/06/30 03:55:52;;;;;;;;;;;;;;;11.23;100.00;101428.78;5107582;27;20394;-69
2023/06/30 03:58:17;;;;;;;;;;;;;;;11.20;100.00;101437.06;5110685;27;19923;-69
2023/06/30 04:00:42;;;;;;;;;;;;;;;11.21;100.00;101438.78;5111588;27;20340;-69
2023/06/30 04:03:08;;;;;;;;;;;;;;;11.23;100.00;101436.84;5112649;27;20464;-69
2023/06/30 04:05:33;;;;;;;;;;;;;;;11.18;100.00;101438.16;5110213;27;20465;-69
2023/06/30 04:07:58;;;;;;;;;;;;;;;11.14;100.00;101428.59;5109242;27;19923;-69
2023/06/30 04:10:24;;;;;;;;;;;;;;;11.16;100.00;101435.56;5078246;28;20002;-69
2023/06/30 04:12:49;;;;;;;;;;;;;;;11.21;100.00;101430.72;5093682;28;19915;-69
2023/06/30 04:15:14;;;;;;;;;;;;;;;11.24;100.00;101424.28;5107919;27;19962;-69
2023/06/30 04:17:39;;;;;;;;;;;;;;;11.26;100.00;101433.06;5090568;28;19927;-69
2023/06/30 04:20:09;;;;;;;;;;;;;;;11.23;100.00;101427.94;5107888;27;19962;-69
2023/06/30 04:22:35;;;;;;;;;;;;;;;11.22;100.00;101426.22;5094249;28;19931;-70
2023/06/30 04:25:01;;;;;;;;;;;;;;;11.23;100.00;101427.94;5093383;27;20509;-70
2023/06/30 04:27:26;;;;;;;;;;;;;;;11.28;100.00;101432.97;5110103;27;20041;-70
2023/06/30 04:29:51;;;;;;;;;;;;;;;11.35;100.00;101426.22;5108318;27;20475;-70
2023/06/30 04:32:16;;;;;;;;;;;;;;;11.46;100.00;101431.66;5112172;27;20450;-70
2023/06/30 04:34:41;;;;;;;;;;;;;;;11.50;100.00;101425.09;5109481;27;20444;-70
2023/06/30 04:37:07;;;;;;;;;;;;;;;11.57;100.00;101428.19;5106270;27;20527;-69
2023/06/30 04:39:33;;;;;;;;;;;;;;;11.64;100.00;101429.47;5095410;28;19949;-69
2023/06/30 04:41:59;;;;;;;;;;;;;;;11.73;100.00;101424.38;5110994;27;20092;-69
2023/06/30 04:44:24;;;;;;;;;;;;;;;11.80;100.00;101417.56;5088621;28;19919;-69
2023/06/30 04:46:50;;;;;;;;;;;;;;;11.85;100.00;101431.53;5089476;28;19926;-69
2023/06/30 04:49:15;;;;;;;;;;;;;;;11.93;100.00;101425.59;5093969;27;20389;-69
2023/06/30 04:51:40;;;;;;;;;;;;;;;11.98;100.00;101426.97;5082421;28;19923;-70
2023/06/30 04:54:05;;;;;;;;;;;;;;;12.05;100.00;101426.56;5095237;28;20207;-69
2023/06/30 04:56:30;;;;;;;;;;;;;;;12.14;100.00;101425.84;5084054;28;20125;-69
2023/06/30 04:58:56;;;;;;;;;;;;;;;12.18;100.00;101430.03;5094855;27;19949;-70
2023/06/30 05:01:21;;;;;;;;;;;;;;;12.28;100.00;101428.38;5097017;27;20288;-70
2023/06/30 05:03:46;;;;;;;;;;;;;;;12.41;100.00;101431.00;5095160;27;19972;-69
2023/06/30 05:06:11;;;;;;;;;;;;;;;12.56;100.00;101431.66;5112863;27;19923;-69
2023/06/30 05:08:36;;;;;;;;;;;;;;;12.66;100.00;101439.88;5090140;27;19924;-69
2023/06/30 05:11:02;;;;;;;;;;;;;;;12.80;100.00;101440.63;5109668;27;20120;-69
2023/06/30 05:13:27;;;;;;;;;;;;;;;12.88;100.00;101433.66;5092348;28;19946;-70
2023/06/30 05:15:52;;;;;;;;;;;;;;;12.97;100.00;101425.84;5095384;27;19960;-70
2023/06/30 05:18:17;;;;;;;;;;;;;;;13.09;100.00;101426.72;5091113;28;19916;-70
2023/06/30 05:20:42;;;;;;;;;;;;;;;13.20;100.00;101427.56;5079298;28;19924;-70
2023/06/30 05:23:08;;;;;;;;;;;;;;;13.32;100.00;101427.56;5095315;27;19923;-69
2023/06/30 05:25:33;;;;;;;;;;;;;;;13.46;100.00;101431.91;5085191;27;19945;-70
2023/06/30 05:27:58;;;;;;;;;;;;;;;13.59;100.00;101438.00;5133609;27;19965;-70
2023/06/30 05:30:23;;;;;;;;;;;;;;;13.72;100.00;101432.44;5109047;28;19919;-70
2023/06/30 05:32:48;;;;;;;;;;;;;;;13.82;100.00;101427.16;5123575;27;19923;-70
2023/06/30 05:35:14;;;;;;;;;;;;;;;13.96;100.00;101439.50;5102501;27;19929;-70
2023/06/30 05:37:39;;;;;;;;;;;;;;;14.03;100.00;101439.88;5107168;28;19923;-70
2023/06/30 05:40:04;;;;;;;;;;;;;;;14.12;100.00;101433.69;5107269;28;19924;-70
2023/06/30 05:42:30;;;;;;;;;;;;;;;14.24;100.00;101429.09;5099727;27;19988;-70
2023/06/30 05:44:55;;;;;;;;;;;;;;;14.28;100.00;101433.25;5113474;27;19966;-71
2023/06/30 05:47:20;;;;;;;;;;;;;;;14.42;100.00;101434.81;5099525;28;19927;-70
2023/06/30 05:49:45;;;;;;;;;;;;;;;14.57;100.00;101434.50;5122912;27;19927;-70
2023/06/30 05:52:11;;;;;;;;;;;;;;;14.68;100.00;101432.63;5118957;27;20283;-70
2023/06/30 05:54:36;;;;;;;;;;;;;;;14.84;100.00;101437.53;5100858;28;19923;-70
2023/06/30 05:57:01;;;;;;;;;;;;;;;14.89;100.00;101429.03;5099811;27;20463;-70
2023/06/30 05:59:28;;;;;;;;;;;;;;;15.02;100.00;101436.06;5083376;27;20357;-70
2023/06/30 06:01:54;;;;;;;;;;;;;;;15.10;100.00;101436.25;5088565;27;20417;-71
2023/06/30 06:04:19;;;;;;;;;;;;;;;15.25;100.00;101434.06;5104901;27;20194;-71
2023/06/30 06:06:44;;;;;;;;;;;;;;;15.37;100.00;101432.94;5115456;27;19923;-70
2023/06/30 06:09:10;;;;;;;;;;;;;;;15.52;100.00;101433.44;5100024;27;19927;-70
2023/06/30 06:11:35;;;;;;;;;;;;;;;15.62;100.00;101440.72;5106339;27;19941;-71
2023/06/30 06:14:00;;;;;;;;;;;;;;;15.72;100.00;101436.22;5101455;27;20690;-70
2023/06/30 06:16:26;;;;;;;;;;;;;;;15.82;100.00;101428.09;5100639;27;20297;-70
2023/06/30 06:18:51;;;;;;;;;;;;;;;15.78;100.00;101432.91;5100546;27;20753;-71
2023/06/30 06:21:16;;;;;;;;;;;;;;;15.88;100.00;101433.00;5121466;27;20473;-71
2023/06/30 06:23:41;;;;;;;;;;;;;;;15.97;100.00;101431.28;5100228;27;20379;-70
2023/06/30 06:26:06;;;;;;;;;;;;;;;16.06;100.00;101427.72;5117057;27;19952;-70
2023/06/30 06:28:32;;;;;;;;;;;;;;;16.21;100.00;101432.75;5096515;28;19958;-70
2023/06/30 06:30:57;;;;;;;;;;;;;;;16.36;100.00;101428.59;5099326;27;20009;-71
2023/06/30 06:33:22;;;;;;;;;;;;;;;16.38;100.00;101429.31;5087063;27;19923;-71
2023/06/30 06:35:53;;;;;;;;;;;;;;;16.55;100.00;101430.44;5118149;27;19919;-70
2023/06/30 06:38:19;;;;;;;;;;;;;;;16.51;100.00;101429.00;5098798;27;19929;-70
2023/06/30 06:40:44;;;;;;;;;;;;;;;16.57;100.00;101427.56;5102238;27;19931;-70
2023/06/30 06:43:09;;;;;;;;;;;;;;;16.60;100.00;101430.88;5085924;27;19927;-71
2023/06/30 06:45:36;;;;;;;;;;;;;;;16.66;100.00;101426.72;5077798;28;20494;-71
2023/06/30 06:48:20;;;;;;;;;;;;;;;16.81;100.00;101427.09;5079993;28;20562;-70
2023/06/30 06:50:46;;;;;;;;;;;;;;;16.80;100.00;101430.81;5080763;28;20018;-70
2023/06/30 06:53:16;;;;;;;;;;;;;;;16.81;100.00;101427.09;5078724;28;20046;-70
2023/06/30 06:55:41;;;;;;;;;;;;;;;16.88;100.00;101428.25;5073649;28;20291;-70
2023/06/30 06:58:06;;;;;;;;;;;;;;;17.04;100.00;101432.22;5090050;28;19931;-69
2023/06/30 07:00:32;;;;;;;;;;;;;;;17.14;100.00;101435.75;5097809;28;19933;-70
2023/06/30 07:02:57;;;;;;;;;;;;;;;17.22;100.00;101438.56;5095939;28;19923;-69
2023/06/30 07:05:22;;;;;;;;;;;;;;;17.25;100.00;101437.44;5106583;28;20004;-71
2023/06/30 07:07:47;;;;;;;;;;;;;;;17.21;100.00;101442.31;5077453;28;20048;-71
2023/06/30 07:10:12;;;;;;;;;;;;;;;17.20;100.00;101421.59;5100115;28;19923;-71
2023/06/30 07:12:38;;;;;;;;;;;;;;;17.37;100.00;101444.34;5077666;28;19924;-71
2023/06/30 07:15:03;;;;;;;;;;;;;;;17.40;100.00;101437.78;5079104;28;21568;-71
2023/06/30 07:17:29;;;;;;;;;;;;;;;17.45;100.00;101437.34;5095720;28;19924;-72
2023/06/30 07:19:54;;;;;;;;;;;;;;;17.59;100.00;101434.13;5090666;28;19927;-71
2023/06/30 07:22:21;;;;;;;;;;;;;;;17.74;100.00;101430.91;5098203;28;19924;-71
2023/06/30 07:24:46;;;;;;;;;;;;;;;17.88;100.00;101434.94;5096318;28;19927;-71
2023/06/30 07:27:11;;;;;;;;;;;;;;;18.06;100.00;101430.41;5095496;28;19924;-72
2023/06/30 07:29:37;;;;;;;;;;;;;;;18.06;100.00;101427.69;5100802;28;20020;-71
2023/06/30 07:32:02;;;;;;;;;;;;;;;18.19;100.00;101432.75;5091480;28;20387;-71
2023/06/30 07:34:29;;;;;;;;;;;;;;;18.34;100.00;101427.63;5094313;28;20288;-71
2023/06/30 07:36:54;;;;;;;;;;;;;;;18.45;100.00;101434.66;5093189;28;19924;-71
2023/06/30 07:39:19;;;;;;;;;;;;;;;18.19;100.00;101437.34;5090139;28;20312;-73
2023/06/30 07:41:45;;;;;;;;;;;;;;;18.37;100.00;101429.19;5078314;28;20460;-72
2023/06/30 07:44:11;;;;;;;;;;;;;;;18.44;100.00;101432.97;5096389;28;19927;-72
2023/06/30 07:46:37;;;;;;;;;;;;;;;18.44;96.13;101430.25;5095761;28;19990;-71
2023/06/30 07:49:02;;;;;;;;;;;;;;;18.58;95.73;101434.25;5098422;28;20484;-70
2023/06/30 07:51:29;;;;;;;;;;;;;;;18.46;87.70;101438.25;5061662;28;19985;-71
2023/06/30 07:53:54;;;;;;;;;;;;;;;18.58;86.76;101434.25;5097438;28;19926;-71
2023/06/30 07:56:19;;;;;;;;;;;;;;;18.80;88.35;101432.06;5081772;28;19919;-71
2023/06/30 07:58:44;;;;;;;;;;;;;;;18.96;90.89;101425.88;5081451;28;19923;-70
2023/06/30 08:01:10;;;;;;;;;;;;;;;18.99;83.41;101425.56;5080772;28;19930;-70
2023/06/30 08:03:35;;;;;;;;;;;;;;;19.09;82.84;101431.75;5082815;28;19927;-71
2023/06/30 08:06:00;;;;;;;;;;;;;;;19.01;77.14;101435.28;5098072;28;19924;-72
2023/06/30 08:08:25;;;;;;;;;;;;;;;19.14;79.92;101434.84;5065884;28;19930;-71
2023/06/30 08:10:51;;;;;;;;;;;;;;;19.22;85.13;101438.63;5076683;28;19924;-71
2023/06/30 08:13:16;;;;;;;;;;;;;;;19.25;81.47;101438.28;5096056;28;19928;-72
2023/06/30 08:15:41;;;;;;;;;;;;;;;19.34;81.09;101431.88;5080323;28;19926;-72
2023/06/30 08:18:07;;;;;;;;;;;;;;;19.56;85.32;101429.59;5076112;28;19934;-72
2023/06/30 08:20:32;;;;;;;;;;;;;;;19.61;70.99;101428.06;5064190;28;19931;-72
2023/06/30 08:22:57;;;;;;;;;;;;;;;19.79;79.71;101430.69;5094181;28;19928;-72
2023/06/30 08:25:23;;;;;;;;;;;;;;;19.90;83.75;101420.53;5098239;28;20424;-71
2023/06/30 08:27:48;;;;;;;;;;;;;;;19.83;78.10;101428.50;5078589;28;20346;-71
2023/06/30 08:30:14;;;;;;;;;;;;;;;19.84;77.87;101422.03;5099169;28;19924;-71
2023/06/30 08:32:39;;;;;;;;;;;;;;;20.00;77.78;101425.81;5062866;28;19923;-71
2023/06/30 08:35:04;;;;;;;;;;;;;;;20.07;72.66;101427.69;5079583;28;19923;-71
2023/06/30 08:37:30;;;;;;;;;;;;;;;20.17;71.59;101424.81;5080357;28;19931;-72
2023/06/30 08:39:55;;;;;;;;;;;;;;;20.35;74.51;101424.66;5101391;28;19920;-70
2023/06/30 08:42:20;;;;;;;;;;;;;;;20.40;69.20;101412.41;5101866;28;19923;-72
2023/06/30 08:44:49;;;;;;;;;;;;;;;20.49;67.14;101422.28;5078897;28;19924;-71
2023/06/30 08:47:15;;;;;;;;;;;;;;;20.41;65.48;101405.91;5079473;28;20285;-72
2023/06/30 08:49:40;;;;;;;;;;;;;;;20.53;69.06;101410.84;5093301;28;20369;-71
2023/06/30 08:52:05;;;;;;;;;;;;;;;20.60;65.71;101408.28;5095110;28;20043;-72
2023/06/30 08:54:32;;;;;;;;;;;;;;;20.77;64.93;101408.31;5079232;28;20010;-71
2023/06/30 08:56:58;;;;;;;;;;;;;;;20.88;70.46;101401.63;5079695;28;20687;-72
2023/06/30 08:59:23;;;;;;;;;;;;;;;20.89;62.43;101398.72;5077177;28;19928;-72
2023/06/30 09:01:48;;;;;;;;;;;;;;;21.10;67.52;101405.47;5079515;28;21259;-72
2023/06/30 09:04:14;;;;;;;;;;;;;;;21.18;68.41;101400.00;5078227;28;19923;-72
2023/06/30 09:06:42;;;;;;;;;;;;;;;21.28;58.83;101394.31;5077430;28;19970;-71
2023/06/30 09:09:10;;;;;;;;;;;;;;;21.50;59.92;101398.16;5073751;28;19956;-72
2023/06/30 09:11:36;;;;;;;;;;;;;;;21.37;60.41;101398.72;5092666;28;19927;-72
2023/06/30 09:14:02;;;;;;;;;;;;;;;21.40;59.28;101403.84;5062503;28;19920;-71
2023/06/30 09:16:30;;;;;;;;;;;;;;;21.48;62.29;101397.47;5077286;28;20317;-71
2023/06/30 09:18:56;;;;;;;;;;;;;;;21.37;58.96;101401.47;5090995;28;20297;-73
2023/06/30 09:21:21;;;;;;;;;;;;;;;21.50;56.64;101392.69;5077545;28;20190;-72
2023/06/30 09:23:46;;;;;;;;;;;;;;;21.74;57.74;101385.41;5094323;28;19928;-70
2023/06/30 09:26:15;;;;;;;;;;;;;;;21.89;58.04;101393.69;5095622;28;19983;-71
2023/06/30 09:28:42;;;;;;;;;;;;;;;21.90;53.10;101386.34;5103803;28;19964;-71
2023/06/30 09:31:08;;;;;;;;;;;;;;;21.98;60.96;101386.28;5060223;28;19930;-70
2023/06/30 09:33:34;;;;;;;;;;;;;;;22.05;56.17;101389.13;5067059;28;20377;-72
2023/06/30 09:36:00;;;;;;;;;;;;;;;21.81;55.90;101394.59;5072079;28;19963;-72
2023/06/30 09:38:28;;;;;;;;;;;;;;;21.74;53.71;101382.69;5094579;28;19931;-72
2023/06/30 09:40:53;;;;;;;;;;;;;;;21.70;55.88;101384.06;5073829;28;19965;-72
2023/06/30 09:43:22;;;;;;;;;;;;;;;21.83;60.84;101384.34;5093955;28;20277;-72
2023/06/30 09:45:53;;;;;;;;;;;;;;;21.46;52.10;101391.34;5061213;28;19930;-74
2023/06/30 09:48:19;;;;;;;;;;;;;;;21.61;52.23;101385.09;5072108;28;19931;-72
2023/06/30 09:50:44;;;;;;;;;;;;;;;21.66;51.80;101390.94;5074244;28;19919;-71
2023/06/30 09:53:09;;;;;;;;;;;;;;;21.73;49.19;101373.63;5062154;28;19924;-71
2023/06/30 09:55:45;;;;;;;;;;;;;;;21.90;53.52;101378.13;5073135;28;20267;-71
2023/06/30 09:58:10;;;;;;;;;;;;;;;21.92;50.12;101382.41;5073548;28;20395;-72
2023/06/30 10:00:36;;;;;;;;;;;;;;;22.17;52.72;101379.47;5072821;28;19928;-72
2023/06/30 10:03:04;;;;;;;;;;;;;;;21.88;51.70;101375.59;5090355;28;19923;-72
2023/06/30 10:05:30;;;;;;;;;;;;;;;21.58;50.72;101378.13;5078379;28;19923;-72
2023/06/30 10:07:55;;;;;;;;;;;;;;;21.51;50.87;101378.00;5060514;28;20538;-72
2023/06/30 10:10:20;;;;;;;;;;;;;;;21.57;54.24;101379.16;5075050;28;21035;-72
2023/06/30 10:12:45;;;;;;;;;;;;;;;21.64;55.35;101377.47;5089053;28;19916;-71
2023/06/30 10:15:11;;;;;;;;;;;;;;;21.23;60.15;101375.75;5095432;28;20027;-71
2023/06/30 10:17:37;;;;;;;;;;;;;;;21.23;55.60;101375.75;5074510;28;19916;-72
2023/06/30 10:20:03;;;;;;;;;;;;;;;21.31;60.08;101374.84;5074188;28;19924;-71
2023/06/30 10:22:28;;;;;;;;;;;;;;;21.32;59.92;101371.09;5071436;28;19924;-71
2023/06/30 10:24:54;;;;;;;;;;;;;;;21.92;58.13;101370.59;5072658;28;20205;-72
2023/06/30 10:27:19;;;;;;;;;;;;;;;22.46;59.66;101365.06;5060031;28;20250;-71
2023/06/30 10:29:45;;;;;;;;;;;;;;;22.83;54.93;101359.72;5073617;28;19919;-70
2023/06/30 10:32:10;;;;;;;;;;;;;;;22.43;54.96;101359.13;5075407;28;20370;-72
2023/06/30 10:34:36;;;;;;;;;;;;;;;22.27;56.19;101357.34;5059739;28;19973;-72
2023/06/30 10:37:01;;;;;;;;;;;;;;;22.22;57.22;101360.66;5077419;28;20388;-69
2023/06/30 10:39:26;;;;;;;;;;;;;;;22.05;51.20;101359.06;5080284;28;19928;-71
2023/06/30 10:41:51;;;;;;;;;;;;;;;22.33;53.69;101351.97;5069148;28;19961;-71
2023/06/30 10:44:19;;;;;;;;;;;;;;;23.04;53.19;101350.75;5084881;28;20046;-71
2023/06/30 10:46:48;;;;;;;;;;;;;;;23.27;55.98;101346.22;5087079;28;20011;-71
2023/06/30 10:49:29;;;;;;;;;;;;;;;23.54;56.07;101347.38;5089665;28;20282;-71
2023/06/30 10:51:56;;;;;;;;;;;;;;;23.85;53.42;101340.75;5082505;28;19934;-71
2023/06/30 10:54:22;;;;;;;;;;;;;;;24.20;52.88;101335.41;5072002;28;19927;-70
2023/06/30 10:56:48;;;;;;;;;;;;;;;24.21;51.18;101339.84;5097972;28;19919;-71
2023/06/30 10:59:17;;;;;;;;;;;;;;;23.87;55.07;101332.31;5095857;28;19919;-70
2023/06/30 11:02:02;;;;;;;;;;;;;;;22.39;52.72;101333.97;5078041;28;20377;-72
2023/06/30 11:04:35;;;;;;;;;;;;;;;22.24;54.53;101336.69;5093057;28;19931;-72
2023/06/30 11:07:03;;;;;;;;;;;;;;;22.44;53.20;101328.81;5077924;28;19971;-71
2023/06/30 11:09:49;;;;;;;;;;;;;;;22.62;52.81;101330.38;5071355;28;19923;-70
2023/06/30 11:12:15;;;;;;;;;;;;;;;23.20;52.46;101327.78;5070690;28;19920;-74
2023/06/30 11:14:49;;;;;;;;;;;;;;;23.86;52.64;101328.72;5058994;28;19924;-71
2023/06/30 11:17:15;;;;;;;;;;;;;;;23.89;54.01;101330.22;5090072;28;19930;-73
2023/06/30 11:19:40;;;;;;;;;;;;;;;24.32;52.30;101327.47;5067581;28;19924;-75
2023/06/30 11:22:25;;;;;;;;;;;;;;;24.01;48.39;101322.34;5075983;28;19961;-73
2023/06/30 11:24:50;;;;;;;;;;;;;;;23.85;49.18;101324.28;5075467;28;20074;-72
2023/06/30 11:27:15;;;;;;;;;;;;;;;23.46;48.70;101317.34;5077658;28;20389;-73
2023/06/30 11:29:40;;;;;;;;;;;;;;;22.59;50.93;101322.53;5061884;28;19924;-73
2023/06/30 11:32:06;;;;;;;;;;;;;;;22.68;53.23;101323.28;5058754;28;19971;-72
2023/06/30 11:34:31;;;;;;;;;;;;;;;22.92;52.46;101322.13;5077316;28;19967;-72
2023/06/30 11:36:56;;;;;;;;;;;;;;;23.61;49.60;101325.50;5078496;28;19924;-71
2023/06/30 11:39:21;;;;;;;;;;;;;;;23.49;50.20;101323.31;5078866;28;20826;-72
2023/06/30 11:41:47;;;;;;;;;;;;;;;23.64;48.83;101315.03;5083130;28;20096;-71
2023/06/30 11:44:13;;;;;;;;;;;;;;;23.81;48.22;101314.75;5079644;28;19924;-72
2023/06/30 11:46:39;;;;;;;;;;;;;;;24.33;47.02;101315.47;5082009;28;19923;-72
2023/06/30 11:49:04;;;;;;;;;;;;;;;25.05;47.19;101315.25;5080253;28;19920;-71
2023/06/30 11:51:31;;;;;;;;;;;;;;;26.33;45.81;101310.91;5080619;28;19924;-71
2023/06/30 11:53:56;;;;;;;;;;;;;;;26.29;41.65;101311.50;5095579;28;19942;-71
2023/06/30 11:56:22;;;;;;;;;;;;;;;25.41;46.07;101313.28;5098321;28;20266;-75
2023/06/30 11:58:48;;;;;;;;;;;;;;;25.98;45.54;101308.31;5080916;28;20369;-72
2023/06/30 12:01:13;;;;;;;;;;;;;;;27.02;43.34;101305.00;5061777;28;19924;-72
2023/06/30 12:03:38;;;;;;;;;;;;;;;27.22;42.91;101307.66;5098214;28;19919;-72
2023/06/30 12:06:04;;;;;;;;;;;;;;;27.31;42.69;101296.41;5080518;28;19971;-71
2023/06/30 12:08:30;;;;;;;;;;;;;;;28.06;39.46;101294.84;5060386;28;20134;-71
2023/06/30 12:10:55;;;;;;;;;;;;;;;28.72;41.25;101289.75;5097392;28;19923;-71
2023/06/30 12:13:21;;;;;;;;;;;;;;;28.76;39.28;101293.78;5079033;28;20259;-70
2023/06/30 12:15:46;;;;;;;;;;;;;;;28.38;37.50;101284.59;5075951;28;20492;-70
2023/06/30 12:18:12;;;;;;;;;;;;;;;29.13;39.08;101288.22;5078274;28;20082;-70
2023/06/30 12:20:37;;;;;;;;;;;;;;;26.74;38.31;101284.13;5074856;28;19962;-77
2023/06/30 12:23:06;;;;;;;;;;;;;;;25.40;42.22;101279.44;5092303;28;19937;-74